Terminal Aerodrome Forecast
Issued by NWS

Home | Current Version | Previous Version | Text Only | Print | Product List | Glossary On
Versions: 1 2 3 4 5 6 7 8 9 10 11 12 13 14 15
000
FTUS43 KILX 241120
TAFDEC
TAF
KDEC 241120Z 2412/2512 29004KT P6SM OVC015
     FM242000 15010KT P6SM BKN035
     FM250000 13014KT P6SM SCT040
     FM250600 16013KT P6SM BKN015=

USA.gov is the U.S. government's official web portal to all federal, state and local government web resources and services.